Carnival Pride — H3VU — position and weather

sailwx.info

Track history (hours):
 
Tides and Currents Weather Stations Pressure Air Temp Water Temp Dewpoint Dewpoint Depression Visibility Wind Speed Wind Dir Waves Ship Positions

Carnival Pride

Operator: Carnival Cruise Lines

Last reported at 2016-Jun-28 19:29 UTC. Time now 2016-Jun-30 15:47 UTC.
Position N 30°32' W 080°16'.

Type: Ship. MMSI: 354215000.

Date/timePositionNaut miles runAvg speedWind from/ knotsBaromVisibWave heightAir tempDewpointWater temp
2016-Jun-28 19:29N 30°32' W 080°16'1211.4
2016-Jun-28 18:27N 30°44' W 080°16'1011.5
2016-Jun-28 17:33N 30°54' W 080°15'5911.1
2016-Jun-28 12:12N 31°48' W 079°47'1312.2
2016-Jun-28 11:08N 31°58' W 079°36'812.3
2016-Jun-28 10:29N 32°03' W 079°29'2416.4
2016-Jun-28 09:00N 32°18' W 079°06'30112.8 150 / 101015.0 5.4 27.025.628.0
2016-Jun-27 09:23N 36°17' W 075°24'1617.2
2016-Jun-27 08:28N 36°31' W 075°33'1617.2
2016-Jun-27 07:31N 36°45' W 075°43'1415.1
2016-Jun-27 06:33N 36°55' W 075°56'1616.1
2016-Jun-27 05:33N 37°08' W 076°08'1817.5
2016-Jun-27 04:33N 37°25' W 076°05'1716.6
2016-Jun-27 03:32N 37°42' W 076°10'1918.5
2016-Jun-27 02:31N 38°00' W 076°12'3618.0
2016-Jun-27 00:32N 38°34' W 076°26'1817.9
2016-Jun-26 23:33N 38°52' W 076°24'1616.5
2016-Jun-26 22:33N 39°08' W 076°24'1110.5
2016-Jun-26 21:33N 39°15' W 076°35'1 0.1
2016-Jun-26 13:33N 39°16' W 076°36'2 1.6
2016-Jun-26 12:33N 39°15' W 076°34'6 6.4
2016-Jun-26 11:34N 39°11' W 076°28'1413.7
2016-Jun-26 10:33N 38°58' W 076°23'2019.8
2016-Jun-26 09:33N 38°38' W 076°25'2020.1
2016-Jun-26 08:33N 38°19' W 076°18'2120.6
2016-Jun-26 07:33N 37°59' W 076°11'1919.3
2016-Jun-26 06:34N 37°40' W 076°09'1717.1
2016-Jun-26 05:33N 37°23' W 076°05'1918.7
2016-Jun-26 04:33N 37°04' W 076°06'1514.8
2016-Jun-26 03:33N 36°54' W 075°53'3818.9
2016-Jun-26 01:33N 36°22' W 075°27'12517.8
2016-Jun-25 18:33N 34°20' W 076°02'17321.7
2016-Jun-25 10:33N 32°11' W 078°19'2717.2
2016-Jun-25 09:00N 31°48' W 078°36'8223.9 220 / 221019.010.8 1.028.025.229.0
2016-Jun-25 05:33N 30°36' W 079°22'  
2016-Jun-21 09:00N 29°06' W 073°12'24120.1 080 / 151021.010.8 0.524.015.826.0
2016-Jun-20 21:00N 33°00' W 074°18'16219.2 240 / 71022.010.8 24.022.525.0
2016-Jun-20 12:33N 35°36' W 075°08'3817.1
2016-Jun-20 10:20N 36°13' W 075°21'1417.4
2016-Jun-20 09:32N 36°25' W 075°30'1 1.9
2016-Jun-20 09:00N 36°24' W 075°30'1839.4 260 / 201023.0 2.2 24.021.021.0
2016-Jun-20 08:33N 36°40' W 075°40'1615.8
2016-Jun-20 07:33N 36°52' W 075°52'1211.8
2016-Jun-20 06:34N 37°00' W 076°02'1716.9
2016-Jun-20 05:32N 37°17' W 076°07'1717.2
2016-Jun-20 04:34N 37°34' W 076°03'1816.6
2016-Jun-20 03:28N 37°51' W 076°09'1718.2
2016-Jun-20 02:34N 38°07' W 076°14'2019.1
2016-Jun-20 01:31N 38°26' W 076°22'1818.3
2016-Jun-20 00:32N 38°44' W 076°26'1818.0
2016-Jun-19 23:33N 39°01' W 076°23'1211.8
2016-Jun-19 22:33N 39°12' W 076°30'6 3.1
2016-Jun-19 20:30N 39°16' W 076°36'0 0.0
2016-Jun-19 19:16N 39°16' W 076°36'0 0.0
2016-Jun-19 18:33N 39°16' W 076°36'0 0.0
2016-Jun-19 17:12N 39°16' W 076°36'0 0.0
2016-Jun-19 16:04N 39°16' W 076°36'0 0.0
2016-Jun-19 14:29N 39°16' W 076°36'2 2.5
2016-Jun-19 13:33N 39°15' W 076°33'1110.9
2016-Jun-19 12:34N 39°07' W 076°24'1615.7
2016-Jun-19 11:33N 38°51' W 076°24'2120.1
2016-Jun-19 10:30N 38°30' W 076°24'2020.7
2016-Jun-19 09:33N 38°12' W 076°14'2020.0
2016-Jun-19 08:33N 37°53' W 076°09'1818.0
2016-Jun-19 07:33N 37°35' W 076°04'1818.0
2016-Jun-19 06:33N 37°17' W 076°07'1616.3
2016-Jun-19 05:33N 37°01' W 076°03'15915.9
2016-Jun-18 19:33N 34°22' W 076°12'  
Track history (hours):
 
Tides and Currents Weather Stations Pressure Air Temp Water Temp Dewpoint Dewpoint Depression Visibility Wind Speed Wind Dir Waves Ship Positions

Carnival Pride

Operator: Carnival Cruise Lines

Last reported at 2016-Jun-28 19:29 UTC. Time now 2016-Jun-30 15:47 UTC.
Position N 30°32' W 080°16'.

Type: Ship. MMSI: 354215000.

Date/timePositionNaut miles runAvg speedWind from/ knotsBaromVisibWave heightAir tempDewpointWater temp
2016-Jun-28 19:29N 30°32' W 080°16'1211.4
2016-Jun-28 18:27N 30°44' W 080°16'1011.5
2016-Jun-28 17:33N 30°54' W 080°15'5911.1
2016-Jun-28 12:12N 31°48' W 079°47'1312.2
2016-Jun-28 11:08N 31°58' W 079°36'812.3
2016-Jun-28 10:29N 32°03' W 079°29'2416.4
2016-Jun-28 09:00N 32°18' W 079°06'30112.8 150 / 101015.0 5.4 27.025.628.0
2016-Jun-27 09:23N 36°17' W 075°24'1617.2
2016-Jun-27 08:28N 36°31' W 075°33'1617.2
2016-Jun-27 07:31N 36°45' W 075°43'1415.1
2016-Jun-27 06:33N 36°55' W 075°56'1616.1
2016-Jun-27 05:33N 37°08' W 076°08'1817.5
2016-Jun-27 04:33N 37°25' W 076°05'1716.6
2016-Jun-27 03:32N 37°42' W 076°10'1918.5
2016-Jun-27 02:31N 38°00' W 076°12'3618.0
2016-Jun-27 00:32N 38°34' W 076°26'1817.9
2016-Jun-26 23:33N 38°52' W 076°24'1616.5
2016-Jun-26 22:33N 39°08' W 076°24'1110.5
2016-Jun-26 21:33N 39°15' W 076°35'1 0.1
2016-Jun-26 13:33N 39°16' W 076°36'2 1.6
2016-Jun-26 12:33N 39°15' W 076°34'6 6.4
2016-Jun-26 11:34N 39°11' W 076°28'1413.7
2016-Jun-26 10:33N 38°58' W 076°23'2019.8
2016-Jun-26 09:33N 38°38' W 076°25'2020.1
2016-Jun-26 08:33N 38°19' W 076°18'2120.6
2016-Jun-26 07:33N 37°59' W 076°11'1919.3
2016-Jun-26 06:34N 37°40' W 076°09'1717.1
2016-Jun-26 05:33N 37°23' W 076°05'1918.7
2016-Jun-26 04:33N 37°04' W 076°06'1514.8
2016-Jun-26 03:33N 36°54' W 075°53'3818.9
2016-Jun-26 01:33N 36°22' W 075°27'12517.8
2016-Jun-25 18:33N 34°20' W 076°02'17321.7
2016-Jun-25 10:33N 32°11' W 078°19'2717.2
2016-Jun-25 09:00N 31°48' W 078°36'8223.9 220 / 221019.010.8 1.028.025.229.0
2016-Jun-25 05:33N 30°36' W 079°22'  
2016-Jun-21 09:00N 29°06' W 073°12'24120.1 080 / 151021.010.8 0.524.015.826.0
2016-Jun-20 21:00N 33°00' W 074°18'16219.2 240 / 71022.010.8 24.022.525.0
2016-Jun-20 12:33N 35°36' W 075°08'3817.1
2016-Jun-20 10:20N 36°13' W 075°21'1417.4
2016-Jun-20 09:32N 36°25' W 075°30'1 1.9
2016-Jun-20 09:00N 36°24' W 075°30'1839.4 260 / 201023.0 2.2 24.021.021.0
2016-Jun-20 08:33N 36°40' W 075°40'1615.8
2016-Jun-20 07:33N 36°52' W 075°52'1211.8
2016-Jun-20 06:34N 37°00' W 076°02'1716.9
2016-Jun-20 05:32N 37°17' W 076°07'1717.2
2016-Jun-20 04:34N 37°34' W 076°03'1816.6
2016-Jun-20 03:28N 37°51' W 076°09'1718.2
2016-Jun-20 02:34N 38°07' W 076°14'2019.1
2016-Jun-20 01:31N 38°26' W 076°22'1818.3
2016-Jun-20 00:32N 38°44' W 076°26'1818.0
2016-Jun-19 23:33N 39°01' W 076°23'1211.8
2016-Jun-19 22:33N 39°12' W 076°30'6 3.1
2016-Jun-19 20:30N 39°16' W 076°36'0 0.0
2016-Jun-19 19:16N 39°16' W 076°36'0 0.0
2016-Jun-19 18:33N 39°16' W 076°36'0 0.0
2016-Jun-19 17:12N 39°16' W 076°36'0 0.0
2016-Jun-19 16:04N 39°16' W 076°36'0 0.0
2016-Jun-19 14:29N 39°16' W 076°36'2 2.5
2016-Jun-19 13:33N 39°15' W 076°33'1110.9
2016-Jun-19 12:34N 39°07' W 076°24'1615.7
2016-Jun-19 11:33N 38°51' W 076°24'2120.1
2016-Jun-19 10:30N 38°30' W 076°24'2020.7
2016-Jun-19 09:33N 38°12' W 076°14'2020.0
2016-Jun-19 08:33N 37°53' W 076°09'1818.0
2016-Jun-19 07:33N 37°35' W 076°04'1818.0
2016-Jun-19 06:33N 37°17' W 076°07'1616.3
2016-Jun-19 05:33N 37°01' W 076°03'15915.9
2016-Jun-18 19:33N 34°22' W 076°12'  

Dump ship's entire track history